This is the latest recevied weather packets stored in our database for station/object W8CEN. If no packets are shown the sender has not sent any weather packets the latest 10 day(s).
| Time | Temp. | Humidity | Pressure | Rain* | Wind** | Luminosity | Snow |
|---|---|---|---|---|---|---|---|
| 1777592181 | 12.22° C | 43% | 992.7 hPa | 0 mm | - | 46 W/m² | - |
| 1777591878 | 12.78° C | 45% | 992.8 hPa | 0 mm | - | 36 W/m² | - |
| 1777591574 | 12.78° C | 45% | 992.5 hPa | 0 mm | - | 59 W/m² | - |
| 1777591271 | 12.78° C | 43% | 992.6 hPa | 0 mm | - | 70 W/m² | - |
| 1777590966 | 12.78° C | 44% | 992.6 hPa | 0 mm | - | 48 W/m² | - |
| 1777590662 | 12.78° C | 44% | 992.5 hPa | 0 mm | - | 90 W/m² | - |
| 1777590358 | 12.78° C | 44% | 992.9 hPa | 0 mm | - | 75 W/m² | - |
| 1777590055 | 13.33° C | 44% | 992.8 hPa | 0 mm | - | 67 W/m² | - |
| 1777589752 | 13.33° C | 43% | 992.6 hPa | 0 mm | - | 66 W/m² | - |
| 1777589450 | 13.89° C | 41% | 992.6 hPa | 0 mm | - | 94 W/m² | - |
| 1777589146 | 13.89° C | 40% | 992.7 hPa | 0 mm | - | 105 W/m² | - |
| 1777588842 | 13.89° C | 40% | 992.7 hPa | 0 mm | - | 93 W/m² | - |
| 1777588538 | 13.89° C | 40% | 992.8 hPa | 0 mm | - | 102 W/m² | - |
| 1777588234 | 13.89° C | 42% | 992.8 hPa | 0 mm | - | 117 W/m² | - |
| 1777587929 | 14.44° C | 40% | 992.8 hPa | 0 mm | - | 111 W/m² | - |
| 1777587626 | 15.56° C | 36% | 992.6 hPa | 0 mm | - | 172 W/m² | - |
| 1777587320 | 16.11° C | 35% | 992.5 hPa | 0 mm | - | 275 W/m² | - |
| 1777587016 | 15.56° C | 39% | 992.7 hPa | 0 mm | - | 359 W/m² | - |
| 1777586711 | 15° C | 37% | 992.7 hPa | 0 mm | - | 362 W/m² | - |
| 1777586408 | 14.44° C | 39% | 992.7 hPa | 0 mm | - | 377 W/m² | - |
| 1777586107 | 13.33° C | 44% | 992.5 hPa | 0 mm | - | 438 W/m² | - |
| 1777585806 | 12.78° C | 42% | 992.5 hPa | 0 mm | - | 120 W/m² | - |
| 1777585506 | 13.33° C | 42% | 992.6 hPa | 0 mm | - | 94 W/m² | - |
| 1777585201 | 13.33° C | 41% | 992.5 hPa | 0 mm | - | 95 W/m² | - |
| 1777584897 | 13.89° C | 40% | 992.5 hPa | 0 mm | - | 112 W/m² | - |
* Rain latest hour (hover to see other rain measurements)
** Current wind speed in m/s (hover to see current wind gust speed)